NCAR-RAP Real-Time Weather Data

Output produced by METARs form (17 October 2018  16:20 UTC)
found at http://weather.rap.ucar.edu/surface/
 
RJDC 171200Z VRB02KT 9999 FEW030 BKN/// 17/13 Q1013
RJDC 171100Z 35003KT 290V050 9999 FEW030 BKN/// 18/13 Q1013
RJDC 171000Z 31003KT 250V010 9999 FEW030 BKN/// 18/13 Q1013
RJDC 170900Z 35004KT 310V040 9999 FEW030 BKN/// 19/13 Q1012
RJDC 170800Z 34004KT 250V060 9999 FEW040 BKN/// 21/13 Q1012
RJDC 170700Z 35005KT 310V040 9999 FEW045 BKN/// 21/12 Q1012
RJDC 170600Z 36004KT 320V030 9999 FEW030 SCT040 BKN/// 22/11 Q1011
RJDC 170500Z 25011KT 9999 FEW025 SCT040 BKN/// 23/15 Q1011
RJDC 170400Z 28006KT 240V340 9999 FEW025 SCT040 BKN/// 23/13 Q1011
RJDC 170300Z VRB03KT 9999 FEW025 SCT040 21/12 Q1012
RJDC 170200Z 32005KT 230V020 9999 -SHRA FEW025 SCT035 BKN045 20/14 Q1013
RJDC 170100Z 28003KT 240V340 9999 FEW025 SCT/// 21/14 Q1013
RJDC 170000Z VRB02KT 9999 FEW030 SCT/// 20/12 Q1013
RJDC 162300Z VRB02KT 9999 FEW030 SCT/// 18/14 Q1013
RJDC 162200Z 34002KT 9999 FEW030 SCT080 15/13 Q1012
RJDC 162130Z 32002KT 9999 FEW030 SCT080 15/12 Q1012
RJDC 161200Z 01005KT 300V050 9999 FEW020 BKN100 18/13 Q1012
RJDC 161100Z 01006KT 330V040 9999 FEW020 SCT080 BKN100 18/14 Q1012
RJDC 161000Z 35004KT 300V040 9999 FEW020 SCT045 BKN110 19/12 Q1012
RJDC 160900Z 34005KT 290V020 9999 FEW020 BKN100 BKN120 19/13 Q1012
RJDC 160800Z 03008KT 9999 FEW020 SCT100 BKN120 20/13 Q1011
RJDC 160700Z 26005KT 9999 -RA FEW020 SCT030 BKN080 20/15 Q1011
RJDC 160600Z 24005KT 9999 FEW025 BKN120 BKN/// 20/15 Q1011
RJDC 160500Z 21004KT 170V240 9999 FEW025 SCT140 BKN/// 21/15 Q1011
RJDC 160400Z 16006KT 9999 FEW025 BKN170 22/15 Q1012
RJDC 160300Z 12007KT 9999 FEW025 BKN170 22/14 Q1013
RJDC 160200Z 09007KT 9999 FEW025 BKN/// 21/14 Q1014
RJDC 160100Z 10005KT 060V130 9999 FEW025 BKN/// 20/14 Q1014
RJDC 160000Z VRB02KT 9999 FEW025 BKN/// 19/14 Q1015
RJDC 152300Z VRB01KT 9999 FEW025 BKN/// 16/14 Q1015
RJDC 152200Z VRB02KT 9999 FEW030 BKN/// 14/13 Q1015
RJDC 152130Z VRB01KT 9999 FEW030 BKN/// 14/13 Q1015
RJDC 151200Z 36003KT 310V050 9999 FEW025 SCT/// 16/13 Q1017
RJDC 151100Z 35003KT 290V040 9999 FEW025 SCT/// 17/13 Q1016
RJDC 151000Z 33003KT 260V020 9999 FEW025 SCT/// 18/12 Q1017
RJDC 150900Z VRB03KT 9999 FEW025 SCT/// 20/12 Q1016
RJDC 150800Z 01007KT 310V030 9999 FEW030 BKN/// 21/11 Q1016
RJDC 150700Z 26012KT 9999 FEW035 BKN/// 22/14 Q1016
RJDC 150600Z 25011KT 9999 FEW040 SCT/// 23/13 Q1016
RJDC 150500Z 25012KT 9999 FEW040 SCT/// 24/13 Q1016